sensor_id;sensor_type;location;lat;lon;timestamp;pressure;altitude;pressure_sealevel;temperature;humidity
59951;BME280;45812;53.540;9.774;2023-02-01T00:00:04;101145.31;;;2.96;100.00
59951;BME280;45812;53.540;9.774;2023-02-01T00:02:29;101124.28;;;2.96;100.00
59951;BME280;45812;53.540;9.774;2023-02-01T00:04:54;101136.41;;;2.98;100.00
59951;BME280;45812;53.540;9.774;2023-02-01T00:07:20;101128.06;;;3.04;100.00
59951;BME280;45812;53.540;9.774;2023-02-01T00:09:45;101128.19;;;3.03;100.00
59951;BME280;45812;53.540;9.774;2023-02-01T00:12:10;101128.59;;;3.10;100.00
59951;BME280;45812;53.540;9.774;2023-02-01T00:14:35;101147.63;;;3.13;100.00
59951;BME280;45812;53.540;9.774;2023-02-01T00:17:05;101126.19;;;3.19;100.00
59951;BME280;45812;53.540;9.774;2023-02-01T00:19:31;101133.13;;;3.20;100.00
59951;BME280;45812;53.540;9.774;2023-02-01T00:21:56;101121.53;;;3.23;100.00
59951;BME280;45812;53.540;9.774;2023-02-01T00:24:21;101120.59;;;3.24;100.00
59951;BME280;45812;53.540;9.774;2023-02-01T00:26:47;101122.16;;;3.26;100.00
59951;BME280;45812;53.540;9.774;2023-02-01T00:29:15;101125.50;;;3.28;100.00
59951;BME280;45812;53.540;9.774;2023-02-01T00:31:41;101123.50;;;3.32;100.00
59951;BME280;45812;53.540;9.774;2023-02-01T00:34:07;101127.50;;;3.38;100.00
59951;BME280;45812;53.540;9.774;2023-02-01T00:36:33;101130.97;;;3.38;100.00
59951;BME280;45812;53.540;9.774;2023-02-01T00:38:59;101116.44;;;3.45;100.00
59951;BME280;45812;53.540;9.774;2023-02-01T00:41:24;101114.53;;;3.47;100.00
59951;BME280;45812;53.540;9.774;2023-02-01T00:43:50;101114.31;;;3.50;100.00
59951;BME280;45812;53.540;9.774;2023-02-01T00:46:17;101124.63;;;3.53;100.00
59951;BME280;45812;53.540;9.774;2023-02-01T00:48:43;101128.38;;;3.62;100.00
59951;BME280;45812;53.540;9.774;2023-02-01T00:51:11;101105.31;;;3.65;100.00
59951;BME280;45812;53.540;9.774;2023-02-01T00:53:37;101113.09;;;3.67;100.00
59951;BME280;45812;53.540;9.774;2023-02-01T00:56:03;101145.53;;;3.68;100.00
59951;BME280;45812;53.540;9.774;2023-02-01T00:58:28;101109.63;;;3.67;100.00
59951;BME280;45812;53.540;9.774;2023-02-01T01:01:10;101127.81;;;3.70;100.00
59951;BME280;45812;53.540;9.774;2023-02-01T01:03:41;101117.41;;;3.68;100.00
59951;BME280;45812;53.540;9.774;2023-02-01T01:06:10;101119.09;;;3.69;100.00
59951;BME280;45812;53.540;9.774;2023-02-01T01:08:36;101103.19;;;3.71;100.00
59951;BME280;45812;53.540;9.774;2023-02-01T01:11:10;101110.03;;;3.73;100.00
59951;BME280;45812;53.540;9.774;2023-02-01T01:13:36;101108.13;;;3.75;100.00
59951;BME280;45812;53.540;9.774;2023-02-01T01:16:03;101104.66;;;3.75;100.00
59951;BME280;45812;53.540;9.774;2023-02-01T01:18:30;101110.44;;;3.80;100.00
59951;BME280;45812;53.540;9.774;2023-02-01T01:20:55;101106.34;;;3.76;100.00
59951;BME280;45812;53.540;9.774;2023-02-01T01:23:20;101095.69;;;3.77;100.00
59951;BME280;45812;53.540;9.774;2023-02-01T01:25:46;101109.75;;;3.89;100.00
59951;BME280;45812;53.540;9.774;2023-02-01T01:28:11;101096.81;;;3.86;100.00
59951;BME280;45812;53.540;9.774;2023-02-01T01:30:36;101093.75;;;3.92;100.00
59951;BME280;45812;53.540;9.774;2023-02-01T01:33:02;101103.22;;;3.94;100.00
59951;BME280;45812;53.540;9.774;2023-02-01T01:35:29;101071.25;;;3.99;100.00
59951;BME280;45812;53.540;9.774;2023-02-01T01:37:55;101070.69;;;4.07;100.00
59951;BME280;45812;53.540;9.774;2023-02-01T01:40:20;101081.22;;;4.07;100.00
59951;BME280;45812;53.540;9.774;2023-02-01T01:42:45;101081.00;;;4.10;100.00
59951;BME280;45812;53.540;9.774;2023-02-01T01:45:30;101069.00;;;4.06;100.00
59951;BME280;45812;53.540;9.774;2023-02-01T01:47:59;101066.75;;;4.12;100.00
59951;BME280;45812;53.540;9.774;2023-02-01T01:50:40;101069.16;;;4.15;100.00
59951;BME280;45812;53.540;9.774;2023-02-01T01:53:08;101057.91;;;4.13;100.00
59951;BME280;45812;53.540;9.774;2023-02-01T01:55:39;101053.81;;;4.09;100.00
59951;BME280;45812;53.540;9.774;2023-02-01T01:58:08;101058.38;;;4.18;100.00
59951;BME280;45812;53.540;9.774;2023-02-01T02:00:36;101050.13;;;4.12;100.00
59951;BME280;45812;53.540;9.774;2023-02-01T02:05:48;101063.13;;;4.02;100.00
59951;BME280;45812;53.540;9.774;2023-02-01T02:08:14;101057.38;;;3.97;100.00
59951;BME280;45812;53.540;9.774;2023-02-01T02:10:40;101048.03;;;4.04;100.00
59951;BME280;45812;53.540;9.774;2023-02-01T02:13:23;101039.66;;;3.99;100.00
59951;BME280;45812;53.540;9.774;2023-02-01T02:16:20;101028.88;;;4.02;100.00
59951;BME280;45812;53.540;9.774;2023-02-01T02:19:25;101027.09;;;4.03;100.00
59951;BME280;45812;53.540;9.774;2023-02-01T02:27:19;101012.34;;;4.00;100.00
59951;BME280;45812;53.540;9.774;2023-02-01T02:32:53;101023.13;;;3.97;100.00
59951;BME280;45812;53.540;9.774;2023-02-01T02:35:50;101017.28;;;4.05;100.00
59951;BME280;45812;53.540;9.774;2023-02-01T02:38:26;100998.28;;;4.12;100.00
59951;BME280;45812;53.540;9.774;2023-02-01T02:41:07;101000.53;;;4.17;100.00
59951;BME280;45812;53.540;9.774;2023-02-01T02:43:48;100998.28;;;4.23;100.00
59951;BME280;45812;53.540;9.774;2023-02-01T02:46:45;100986.06;;;4.22;100.00
59951;BME280;45812;53.540;9.774;2023-02-01T02:49:48;100978.00;;;4.02;100.00
59951;BME280;45812;53.540;9.774;2023-02-01T02:52:37;100971.81;;;4.14;100.00
59951;BME280;45812;53.540;9.774;2023-02-01T02:55:26;100979.19;;;4.09;100.00
59951;BME280;45812;53.540;9.774;2023-02-01T02:57:53;100974.00;;;4.31;100.00
59951;BME280;45812;53.540;9.774;2023-02-01T03:00:38;100970.72;;;4.16;100.00
59951;BME280;45812;53.540;9.774;2023-02-01T03:03:23;100974.09;;;4.18;100.00
59951;BME280;45812;53.540;9.774;2023-02-01T03:06:12;100968.91;;;4.06;100.00
59951;BME280;45812;53.540;9.774;2023-02-01T03:08:40;100955.59;;;4.07;100.00
59951;BME280;45812;53.540;9.774;2023-02-01T03:11:11;100962.94;;;4.15;100.00
59951;BME280;45812;53.540;9.774;2023-02-01T03:13:56;100983.00;;;3.93;100.00
59951;BME280;45812;53.540;9.774;2023-02-01T03:16:25;100979.97;;;3.87;100.00
59951;BME280;45812;53.540;9.774;2023-02-01T03:19:23;100987.50;;;3.80;100.00
59951;BME280;45812;53.540;9.774;2023-02-01T03:21:53;101027.13;;;3.79;100.00
59951;BME280;45812;53.540;9.774;2023-02-01T03:24:30;100999.25;;;3.76;100.00
59951;BME280;45812;53.540;9.774;2023-02-01T03:27:05;100962.22;;;3.67;100.00
59951;BME280;45812;53.540;9.774;2023-02-01T03:29:38;100975.63;;;3.40;100.00
59951;BME280;45812;53.540;9.774;2023-02-01T03:32:05;100953.09;;;3.12;100.00
59951;BME280;45812;53.540;9.774;2023-02-01T03:34:31;100942.59;;;3.12;100.00
59951;BME280;45812;53.540;9.774;2023-02-01T03:37:00;100930.50;;;3.09;100.00
59951;BME280;45812;53.540;9.774;2023-02-01T03:39:36;100928.50;;;3.13;100.00
59951;BME280;45812;53.540;9.774;2023-02-01T03:42:06;100920.88;;;3.21;100.00
59951;BME280;45812;53.540;9.774;2023-02-01T03:45:07;100932.09;;;3.36;100.00
59951;BME280;45812;53.540;9.774;2023-02-01T03:47:37;100929.88;;;3.29;100.00
59951;BME280;45812;53.540;9.774;2023-02-01T03:50:08;100922.09;;;3.28;100.00
59951;BME280;45812;53.540;9.774;2023-02-01T03:52:40;100908.41;;;3.36;100.00
59951;BME280;45812;53.540;9.774;2023-02-01T03:55:08;100913.56;;;3.37;100.00
59951;BME280;45812;53.540;9.774;2023-02-01T03:57:38;100917.28;;;3.46;100.00
59951;BME280;45812;53.540;9.774;2023-02-01T04:02:30;100916.50;;;3.56;100.00
59951;BME280;45812;53.540;9.774;2023-02-01T04:04:55;100915.31;;;3.60;100.00
59951;BME280;45812;53.540;9.774;2023-02-01T04:07:21;100898.03;;;3.45;100.00
59951;BME280;45812;53.540;9.774;2023-02-01T04:09:46;100920.63;;;3.48;100.00
59951;BME280;45812;53.540;9.774;2023-02-01T04:12:11;100904.97;;;3.46;100.00
59951;BME280;45812;53.540;9.774;2023-02-01T04:14:36;100913.47;;;3.50;100.00
59951;BME280;45812;53.540;9.774;2023-02-01T04:17:02;100909.50;;;3.44;100.00
59951;BME280;45812;53.540;9.774;2023-02-01T04:19:27;100900.50;;;3.36;100.00
59951;BME280;45812;53.540;9.774;2023-02-01T04:21:52;100898.25;;;3.42;100.00
59951;BME280;45812;53.540;9.774;2023-02-01T04:24:17;100912.72;;;3.48;100.00
59951;BME280;45812;53.540;9.774;2023-02-01T04:26:43;100905.69;;;3.48;100.00
59951;BME280;45812;53.540;9.774;2023-02-01T04:29:09;100906.75;;;3.46;100.00
59951;BME280;45812;53.540;9.774;2023-02-01T04:31:35;100913.09;;;3.43;100.00
59951;BME280;45812;53.540;9.774;2023-02-01T04:34:01;100907.81;;;3.43;100.00
59951;BME280;45812;53.540;9.774;2023-02-01T04:36:26;100895.03;;;3.39;100.00
59951;BME280;45812;53.540;9.774;2023-02-01T04:38:52;100897.75;;;3.37;100.00
59951;BME280;45812;53.540;9.774;2023-02-01T04:41:18;100902.91;;;3.39;100.00
59951;BME280;45812;53.540;9.774;2023-02-01T04:43:46;100886.41;;;3.37;100.00
59951;BME280;45812;53.540;9.774;2023-02-01T04:46:12;100899.88;;;3.32;100.00
59951;BME280;45812;53.540;9.774;2023-02-01T04:48:37;100907.88;;;3.30;100.00
59951;BME280;45812;53.540;9.774;2023-02-01T04:51:02;100905.50;;;3.27;100.00
59951;BME280;45812;53.540;9.774;2023-02-01T04:53:27;100904.75;;;3.25;100.00
59951;BME280;45812;53.540;9.774;2023-02-01T04:55:54;100917.44;;;3.20;100.00
59951;BME280;45812;53.540;9.774;2023-02-01T04:58:19;100935.75;;;3.09;100.00
59951;BME280;45812;53.540;9.774;2023-02-01T05:00:45;100976.41;;;2.92;100.00
59951;BME280;45812;53.540;9.774;2023-02-01T05:03:10;100950.91;;;2.82;100.00
59951;BME280;45812;53.540;9.774;2023-02-01T05:05:35;100933.75;;;2.76;100.00
59951;BME280;45812;53.540;9.774;2023-02-01T05:08:00;100945.22;;;2.75;100.00
59951;BME280;45812;53.540;9.774;2023-02-01T05:10:26;100939.38;;;2.59;100.00
59951;BME280;45812;53.540;9.774;2023-02-01T05:12:51;100929.44;;;2.38;100.00
59951;BME280;45812;53.540;9.774;2023-02-01T05:15:34;100908.22;;;2.16;100.00
59951;BME280;45812;53.540;9.774;2023-02-01T05:18:00;100892.28;;;2.06;100.00
59951;BME280;45812;53.540;9.774;2023-02-01T05:20:25;100885.69;;;1.88;100.00
59951;BME280;45812;53.540;9.774;2023-02-01T05:22:50;100869.28;;;1.85;100.00
59951;BME280;45812;53.540;9.774;2023-02-01T05:25:16;100855.81;;;2.02;100.00
59951;BME280;45812;53.540;9.774;2023-02-01T05:27:41;100851.22;;;2.05;100.00
59951;BME280;45812;53.540;9.774;2023-02-01T05:30:08;100846.72;;;1.95;100.00
59951;BME280;45812;53.540;9.774;2023-02-01T05:32:33;100881.44;;;1.86;100.00
59951;BME280;45812;53.540;9.774;2023-02-01T05:34:59;100897.72;;;0.86;100.00
59951;BME280;45812;53.540;9.774;2023-02-01T05:37:24;100886.75;;;0.52;100.00
59951;BME280;45812;53.540;9.774;2023-02-01T05:39:50;100890.16;;;0.81;100.00
59951;BME280;45812;53.540;9.774;2023-02-01T05:42:15;100898.78;;;1.23;100.00
59951;BME280;45812;53.540;9.774;2023-02-01T05:44:40;100898.41;;;1.42;100.00
59951;BME280;45812;53.540;9.774;2023-02-01T05:47:06;100904.19;;;1.47;100.00
59951;BME280;45812;53.540;9.774;2023-02-01T05:49:31;100906.31;;;1.55;100.00
59951;BME280;45812;53.540;9.774;2023-02-01T05:51:56;100896.25;;;1.61;100.00
59951;BME280;45812;53.540;9.774;2023-02-01T05:54:21;100911.38;;;1.70;100.00
59951;BME280;45812;53.540;9.774;2023-02-01T05:56:47;100898.78;;;1.75;100.00
59951;BME280;45812;53.540;9.774;2023-02-01T05:59:12;100877.91;;;1.87;100.00
59951;BME280;45812;53.540;9.774;2023-02-01T06:01:37;100879.38;;;1.91;100.00
59951;BME280;45812;53.540;9.774;2023-02-01T06:04:02;100865.63;;;1.87;100.00
59951;BME280;45812;53.540;9.774;2023-02-01T06:06:28;100853.41;;;1.99;100.00
59951;BME280;45812;53.540;9.774;2023-02-01T06:08:53;100868.78;;;2.05;100.00
59951;BME280;45812;53.540;9.774;2023-02-01T06:11:18;100857.31;;;2.06;100.00
59951;BME280;45812;53.540;9.774;2023-02-01T06:13:43;100858.22;;;2.18;100.00
59951;BME280;45812;53.540;9.774;2023-02-01T06:16:09;100866.53;;;2.24;100.00
59951;BME280;45812;53.540;9.774;2023-02-01T06:18:34;100871.34;;;2.30;100.00
59951;BME280;45812;53.540;9.774;2023-02-01T06:21:00;100856.94;;;2.36;100.00
59951;BME280;45812;53.540;9.774;2023-02-01T06:23:27;100853.78;;;2.43;100.00
59951;BME280;45812;53.540;9.774;2023-02-01T06:25:58;100862.38;;;2.46;100.00
59951;BME280;45812;53.540;9.774;2023-02-01T06:28:24;100870.69;;;2.39;100.00
59951;BME280;45812;53.540;9.774;2023-02-01T06:30:49;100873.97;;;2.43;100.00
59951;BME280;45812;53.540;9.774;2023-02-01T06:33:15;100873.50;;;2.49;100.00
59951;BME280;45812;53.540;9.774;2023-02-01T06:35:41;100875.91;;;2.52;100.00
59951;BME280;45812;53.540;9.774;2023-02-01T06:38:07;100882.22;;;2.62;100.00
59951;BME280;45812;53.540;9.774;2023-02-01T06:40:32;100872.66;;;2.61;100.00
59951;BME280;45812;53.540;9.774;2023-02-01T06:42:58;100875.88;;;2.65;100.00
59951;BME280;45812;53.540;9.774;2023-02-01T06:45:23;100868.63;;;2.68;100.00
59951;BME280;45812;53.540;9.774;2023-02-01T06:47:48;100863.09;;;2.84;100.00
59951;BME280;45812;53.540;9.774;2023-02-01T06:50:14;100871.13;;;2.94;100.00
59951;BME280;45812;53.540;9.774;2023-02-01T06:52:39;100860.84;;;2.91;100.00
59951;BME280;45812;53.540;9.774;2023-02-01T06:55:05;100863.81;;;2.86;100.00
59951;BME280;45812;53.540;9.774;2023-02-01T06:57:30;100878.91;;;2.95;100.00
59951;BME280;45812;53.540;9.774;2023-02-01T06:59:58;100877.56;;;2.90;100.00
59951;BME280;45812;53.540;9.774;2023-02-01T07:02:23;100875.00;;;3.01;100.00
59951;BME280;45812;53.540;9.774;2023-02-01T07:04:49;100879.22;;;3.03;100.00
59951;BME280;45812;53.540;9.774;2023-02-01T07:07:14;100868.69;;;3.03;100.00
59951;BME280;45812;53.540;9.774;2023-02-01T07:09:40;100864.38;;;3.02;100.00
59951;BME280;45812;53.540;9.774;2023-02-01T07:12:05;100872.69;;;2.96;100.00
59951;BME280;45812;53.540;9.774;2023-02-01T07:14:31;100875.44;;;2.95;100.00
59951;BME280;45812;53.540;9.774;2023-02-01T07:16:56;100880.16;;;3.02;100.00
59951;BME280;45812;53.540;9.774;2023-02-01T07:19:21;100883.63;;;3.03;100.00
59951;BME280;45812;53.540;9.774;2023-02-01T07:21:46;100880.78;;;3.06;100.00
59951;BME280;45812;53.540;9.774;2023-02-01T07:24:12;100887.13;;;3.15;100.00
59951;BME280;45812;53.540;9.774;2023-02-01T07:26:37;100898.50;;;3.15;100.00
59951;BME280;45812;53.540;9.774;2023-02-01T07:29:02;100868.94;;;3.12;100.00
59951;BME280;45812;53.540;9.774;2023-02-01T07:31:28;100887.66;;;3.20;100.00
59951;BME280;45812;53.540;9.774;2023-02-01T07:33:54;100877.16;;;3.31;100.00
59951;BME280;45812;53.540;9.774;2023-02-01T07:36:21;100892.28;;;3.40;100.00
59951;BME280;45812;53.540;9.774;2023-02-01T07:38:46;100885.34;;;3.50;100.00
59951;BME280;45812;53.540;9.774;2023-02-01T07:41:12;100883.13;;;3.57;100.00
59951;BME280;45812;53.540;9.774;2023-02-01T07:43:37;100889.44;;;3.54;100.00
59951;BME280;45812;53.540;9.774;2023-02-01T07:46:04;100882.88;;;3.60;100.00
59951;BME280;45812;53.540;9.774;2023-02-01T07:48:30;100887.66;;;3.66;100.00
59951;BME280;45812;53.540;9.774;2023-02-01T07:51:08;100876.06;;;3.69;100.00
59951;BME280;45812;53.540;9.774;2023-02-01T07:53:34;100888.50;;;3.67;100.00
59951;BME280;45812;53.540;9.774;2023-02-01T07:56:00;100886.13;;;3.63;100.00
59951;BME280;45812;53.540;9.774;2023-02-01T07:58:27;100901.19;;;3.61;100.00
59951;BME280;45812;53.540;9.774;2023-02-01T08:00:52;100898.06;;;3.56;100.00
59951;BME280;45812;53.540;9.774;2023-02-01T08:03:37;100889.22;;;3.69;100.00
59951;BME280;45812;53.540;9.774;2023-02-01T08:06:02;100893.53;;;3.70;100.00
59951;BME280;45812;53.540;9.774;2023-02-01T08:08:28;100882.28;;;3.68;100.00
59951;BME280;45812;53.540;9.774;2023-02-01T08:10:58;100897.13;;;3.69;100.00
59951;BME280;45812;53.540;9.774;2023-02-01T08:13:24;100900.38;;;3.72;100.00
59951;BME280;45812;53.540;9.774;2023-02-01T08:15:49;100902.16;;;3.72;100.00
59951;BME280;45812;53.540;9.774;2023-02-01T08:18:14;100898.13;;;3.79;100.00
59951;BME280;45812;53.540;9.774;2023-02-01T08:20:42;100917.03;;;3.84;100.00
59951;BME280;45812;53.540;9.774;2023-02-01T08:23:10;100937.41;;;4.04;100.00
59951;BME280;45812;53.540;9.774;2023-02-01T08:25:36;100936.72;;;4.36;100.00
59951;BME280;45812;53.540;9.774;2023-02-01T08:28:02;100929.31;;;4.52;100.00
59951;BME280;45812;53.540;9.774;2023-02-01T08:30:27;100938.78;;;4.54;100.00
59951;BME280;45812;53.540;9.774;2023-02-01T08:32:52;100935.16;;;4.55;100.00
59951;BME280;45812;53.540;9.774;2023-02-01T08:35:18;100921.03;;;4.34;100.00
59951;BME280;45812;53.540;9.774;2023-02-01T08:37:43;100918.03;;;4.39;100.00
59951;BME280;45812;53.540;9.774;2023-02-01T08:40:10;100923.31;;;4.39;100.00
59951;BME280;45812;53.540;9.774;2023-02-01T08:42:35;100930.88;;;4.32;100.00
59951;BME280;45812;53.540;9.774;2023-02-01T08:45:16;100927.16;;;4.35;100.00
59951;BME280;45812;53.540;9.774;2023-02-01T08:47:41;100916.25;;;4.39;100.00
59951;BME280;45812;53.540;9.774;2023-02-01T08:50:07;100912.66;;;4.40;100.00
59951;BME280;45812;53.540;9.774;2023-02-01T08:52:33;100907.50;;;4.39;100.00
59951;BME280;45812;53.540;9.774;2023-02-01T08:54:58;100910.94;;;4.62;100.00
59951;BME280;45812;53.540;9.774;2023-02-01T08:57:24;100906.44;;;5.07;100.00
59951;BME280;45812;53.540;9.774;2023-02-01T08:59:49;100911.69;;;5.39;100.00
59951;BME280;45812;53.540;9.774;2023-02-01T09:02:16;100916.28;;;5.05;100.00
59951;BME280;45812;53.540;9.774;2023-02-01T09:04:41;100909.72;;;4.88;100.00
59951;BME280;45812;53.540;9.774;2023-02-01T09:07:08;100898.41;;;4.97;100.00
59951;BME280;45812;53.540;9.774;2023-02-01T09:09:33;100915.25;;;5.28;100.00
59951;BME280;45812;53.540;9.774;2023-02-01T09:11:59;100905.75;;;4.82;100.00
59951;BME280;45812;53.540;9.774;2023-02-01T09:14:24;100892.16;;;4.44;100.00
59951;BME280;45812;53.540;9.774;2023-02-01T09:16:49;100891.22;;;4.34;100.00
59951;BME280;45812;53.540;9.774;2023-02-01T09:19:14;100909.28;;;4.38;100.00
59951;BME280;45812;53.540;9.774;2023-02-01T09:21:40;100885.00;;;4.35;100.00
59951;BME280;45812;53.540;9.774;2023-02-01T09:24:06;100902.81;;;4.42;100.00
59951;BME280;45812;53.540;9.774;2023-02-01T09:26:32;100900.19;;;4.53;100.00
59951;BME280;45812;53.540;9.774;2023-02-01T09:28:57;100907.22;;;4.64;100.00
59951;BME280;45812;53.540;9.774;2023-02-01T09:31:23;100888.50;;;4.90;100.00
59951;BME280;45812;53.540;9.774;2023-02-01T09:33:48;100893.06;;;5.20;100.00
59951;BME280;45812;53.540;9.774;2023-02-01T09:36:13;100892.75;;;5.13;100.00
59951;BME280;45812;53.540;9.774;2023-02-01T09:38:38;100907.09;;;4.88;100.00
59951;BME280;45812;53.540;9.774;2023-02-01T09:41:21;100912.50;;;4.75;100.00
59951;BME280;45812;53.540;9.774;2023-02-01T09:46:54;100894.69;;;5.00;100.00
59951;BME280;45812;53.540;9.774;2023-02-01T09:49:27;100893.84;;;5.10;100.00
59951;BME280;45812;53.540;9.774;2023-02-01T09:51:54;100901.03;;;5.08;100.00
59951;BME280;45812;53.540;9.774;2023-02-01T09:54:40;100887.19;;;5.16;100.00
59951;BME280;45812;53.540;9.774;2023-02-01T09:57:17;100893.97;;;5.09;100.00
59951;BME280;45812;53.540;9.774;2023-02-01T09:59:53;100887.88;;;4.97;100.00
59951;BME280;45812;53.540;9.774;2023-02-01T10:02:26;100894.16;;;4.85;100.00
59951;BME280;45812;53.540;9.774;2023-02-01T10:04:57;100900.38;;;4.84;100.00
59951;BME280;45812;53.540;9.774;2023-02-01T10:07:45;100903.44;;;5.00;100.00
59951;BME280;45812;53.540;9.774;2023-02-01T10:10:17;100906.19;;;5.10;100.00
59951;BME280;45812;53.540;9.774;2023-02-01T10:13:05;100918.09;;;5.04;100.00
59951;BME280;45812;53.540;9.774;2023-02-01T10:16:10;100907.22;;;4.86;100.00
59951;BME280;45812;53.540;9.774;2023-02-01T10:18:47;100892.81;;;4.91;100.00
59951;BME280;45812;53.540;9.774;2023-02-01T10:21:34;100888.50;;;4.90;100.00
59951;BME280;45812;53.540;9.774;2023-02-01T10:24:11;100890.75;;;4.94;100.00
59951;BME280;45812;53.540;9.774;2023-02-01T10:26:50;100903.03;;;4.84;100.00
59951;BME280;45812;53.540;9.774;2023-02-01T10:29:22;100880.66;;;4.67;100.00
59951;BME280;45812;53.540;9.774;2023-02-01T10:31:49;100874.28;;;4.59;100.00
59951;BME280;45812;53.540;9.774;2023-02-01T10:34:21;100871.16;;;4.65;100.00
59951;BME280;45812;53.540;9.774;2023-02-01T10:37:13;100863.63;;;4.71;100.00
59951;BME280;45812;53.540;9.774;2023-02-01T10:39:44;100864.44;;;4.72;100.00
59951;BME280;45812;53.540;9.774;2023-02-01T10:42:10;100854.28;;;4.67;100.00
59951;BME280;45812;53.540;9.774;2023-02-01T10:44:38;100849.84;;;4.56;100.00
59951;BME280;45812;53.540;9.774;2023-02-01T10:47:05;100843.25;;;4.62;100.00
59951;BME280;45812;53.540;9.774;2023-02-01T10:49:45;100834.38;;;4.63;100.00
59951;BME280;45812;53.540;9.774;2023-02-01T10:52:13;100837.13;;;4.62;100.00
59951;BME280;45812;53.540;9.774;2023-02-01T10:54:40;100820.13;;;4.66;100.00
59951;BME280;45812;53.540;9.774;2023-02-01T10:57:24;100820.47;;;4.72;100.00
59951;BME280;45812;53.540;9.774;2023-02-01T10:59:51;100812.16;;;4.77;100.00
59951;BME280;45812;53.540;9.774;2023-02-01T11:02:26;100823.16;;;4.82;100.00
59951;BME280;45812;53.540;9.774;2023-02-01T11:05:02;100807.69;;;4.89;100.00
59951;BME280;45812;53.540;9.774;2023-02-01T11:07:28;100820.94;;;4.98;100.00
59951;BME280;45812;53.540;9.774;2023-02-01T11:09:55;100800.25;;;4.94;100.00
59951;BME280;45812;53.540;9.774;2023-02-01T11:12:41;100810.41;;;4.98;100.00
59951;BME280;45812;53.540;9.774;2023-02-01T11:15:18;100810.59;;;4.85;100.00
59951;BME280;45812;53.540;9.774;2023-02-01T11:17:46;100793.56;;;4.90;100.00
59951;BME280;45812;53.540;9.774;2023-02-01T11:20:17;100786.59;;;4.89;100.00
59951;BME280;45812;53.540;9.774;2023-02-01T11:23:01;100791.50;;;4.93;100.00
59951;BME280;45812;53.540;9.774;2023-02-01T11:25:28;100776.94;;;4.99;100.00
59951;BME280;45812;53.540;9.774;2023-02-01T11:27:54;100787.13;;;5.03;100.00
59951;BME280;45812;53.540;9.774;2023-02-01T11:30:36;100797.88;;;4.91;100.00
59951;BME280;45812;53.540;9.774;2023-02-01T11:33:04;100792.00;;;4.87;100.00
59951;BME280;45812;53.540;9.774;2023-02-01T11:35:30;100790.56;;;4.83;100.00
59951;BME280;45812;53.540;9.774;2023-02-01T11:37:59;100770.94;;;4.76;100.00
59951;BME280;45812;53.540;9.774;2023-02-01T11:42:54;100783.75;;;4.80;100.00
59951;BME280;45812;53.540;9.774;2023-02-01T11:45:27;100779.09;;;4.73;100.00
59951;BME280;45812;53.540;9.774;2023-02-01T11:47:54;100755.78;;;4.57;100.00
59951;BME280;45812;53.540;9.774;2023-02-01T11:50:57;100766.13;;;4.49;100.00
59951;BME280;45812;53.540;9.774;2023-02-01T11:53:40;100752.72;;;4.41;100.00
59951;BME280;45812;53.540;9.774;2023-02-01T11:56:25;100748.66;;;4.48;100.00
59951;BME280;45812;53.540;9.774;2023-02-01T12:04:59;100751.75;;;4.42;100.00
59951;BME280;45812;53.540;9.774;2023-02-01T12:07:55;100744.34;;;4.47;100.00
59951;BME280;45812;53.540;9.774;2023-02-01T12:11:16;100746.16;;;4.35;100.00
59951;BME280;45812;53.540;9.774;2023-02-01T12:19:41;100754.72;;;4.16;100.00
59951;BME280;45812;53.540;9.774;2023-02-01T12:22:15;100762.97;;;4.12;100.00
59951;BME280;45812;53.540;9.774;2023-02-01T12:25:17;100759.28;;;4.03;100.00
59951;BME280;45812;53.540;9.774;2023-02-01T12:28:03;100806.81;;;3.90;100.00
59951;BME280;45812;53.540;9.774;2023-02-01T12:30:55;100812.75;;;3.70;100.00
59951;BME280;45812;53.540;9.774;2023-02-01T12:44:04;100785.84;;;2.98;100.00
59951;BME280;45812;53.540;9.774;2023-02-01T12:46:46;100787.00;;;2.94;100.00
59951;BME280;45812;53.540;9.774;2023-02-01T12:49:19;100771.09;;;2.84;100.00
59951;BME280;45812;53.540;9.774;2023-02-01T12:51:54;100773.50;;;2.87;100.00
59951;BME280;45812;53.540;9.774;2023-02-01T12:54:35;100776.00;;;2.89;100.00
59951;BME280;45812;53.540;9.774;2023-02-01T12:57:15;100793.44;;;2.90;100.00
59951;BME280;45812;53.540;9.774;2023-02-01T12:59:49;100775.66;;;2.93;100.00
59951;BME280;45812;53.540;9.774;2023-02-01T13:02:25;100755.16;;;3.10;100.00
59951;BME280;45812;53.540;9.774;2023-02-01T13:04:59;100753.00;;;3.03;100.00
59951;BME280;45812;53.540;9.774;2023-02-01T13:07:41;100757.34;;;3.27;100.00
59951;BME280;45812;53.540;9.774;2023-02-01T13:10:24;100735.72;;;3.57;100.00
59951;BME280;45812;53.540;9.774;2023-02-01T13:13:08;100733.34;;;3.76;100.00
59951;BME280;45812;53.540;9.774;2023-02-01T13:15:44;100727.16;;;4.20;100.00
59951;BME280;45812;53.540;9.774;2023-02-01T13:18:20;100725.63;;;5.03;100.00
59951;BME280;45812;53.540;9.774;2023-02-01T13:20:55;100727.13;;;5.77;100.00
59951;BME280;45812;53.540;9.774;2023-02-01T13:23:33;100730.75;;;7.13;100.00
59951;BME280;45812;53.540;9.774;2023-02-01T13:25:59;100732.75;;;7.85;100.00
59951;BME280;45812;53.540;9.774;2023-02-01T13:28:31;100736.16;;;8.50;95.19
59951;BME280;45812;53.540;9.774;2023-02-01T13:34:22;100729.25;;;8.75;88.69
59951;BME280;45812;53.540;9.774;2023-02-01T13:36:53;100745.53;;;8.00;92.85
59951;BME280;45812;53.540;9.774;2023-02-01T13:44:58;100736.84;;;7.23;93.39
59951;BME280;45812;53.540;9.774;2023-02-01T13:47:34;100735.75;;;6.20;99.89
59951;BME280;45812;53.540;9.774;2023-02-01T13:50:13;100715.19;;;5.53;100.00
59951;BME280;45812;53.540;9.774;2023-02-01T13:52:45;100738.09;;;5.01;100.00
59951;BME280;45812;53.540;9.774;2023-02-01T13:57:46;100716.41;;;5.18;100.00
59951;BME280;45812;53.540;9.774;2023-02-01T14:00:35;100714.00;;;5.36;100.00